Time;durP1;ratioP1;P1;durP2;ratioP2;P2;SDS_P1;SDS_P2;PMS_P1;PMS_P2;Temp;Humidity;BMP_temperature;BMP_pressure;BME280_temperature;BME280_humidity;BME280_pressure;Samples;Min_cycle;Max_cycle;Signal;HPM_P1;HPM_P2
2022/04/17 00:00:05;;;;;;;21.42;15.23;;;4.50;99.90;;;;;;2494430;23;20368;-71
2022/04/17 00:01:06;;;;;;;20.13;14.88;;;4.50;99.90;;;;;;2495224;23;20015;-71
2022/04/17 00:02:06;;;;;;;21.02;15.40;;;4.50;99.90;;;;;;2506630;23;20135;-71
2022/04/17 00:03:07;;;;;;;19.30;14.80;;;4.50;99.90;;;;;;2507035;23;20026;-69
2022/04/17 00:04:10;;;;;;;21.50;15.65;;;4.50;99.90;;;;;;2506630;23;20063;-70
2022/04/17 00:05:11;;;;;;;20.45;15.02;;;4.50;99.90;;;;;;2506500;23;20003;-70
2022/04/17 00:06:13;;;;;;;19.42;14.73;;;4.50;99.90;;;;;;2494542;23;20046;-71
2022/04/17 00:07:14;;;;;;;20.63;15.18;;;4.50;99.90;;;;;;2495659;23;20067;-71
2022/04/17 00:08:15;;;;;;;18.65;14.00;;;4.40;99.90;;;;;;2507777;23;20503;-72
2022/04/17 00:09:15;;;;;;;20.48;14.90;;;4.40;99.90;;;;;;2507796;23;20011;-72
2022/04/17 00:10:16;;;;;;;20.95;14.25;;;4.40;99.90;;;;;;2507934;23;20071;-69
2022/04/17 00:11:17;;;;;;;20.27;14.02;;;4.40;99.90;;;;;;2507955;23;20011;-71
2022/04/17 00:12:18;;;;;;;18.50;14.27;;;4.40;99.90;;;;;;2507322;23;20007;-71
2022/04/17 00:13:20;;;;;;;20.55;14.77;;;4.40;99.90;;;;;;2507014;23;19998;-70
2022/04/17 00:14:21;;;;;;;19.17;14.63;;;4.40;99.90;;;;;;2495364;23;20003;-71
2022/04/17 00:15:21;;;;;;;18.15;14.20;;;4.40;99.90;;;;;;2495354;23;20007;-71
2022/04/17 00:16:22;;;;;;;20.90;15.02;;;4.40;99.90;;;;;;2507823;23;20017;-73
2022/04/17 00:17:23;;;;;;;19.55;14.25;;;4.30;99.90;;;;;;2495015;23;20007;-71
2022/04/17 00:18:23;;;;;;;19.38;14.45;;;4.30;99.90;;;;;;2495159;23;20003;-71
2022/04/17 00:19:24;;;;;;;18.80;14.45;;;4.30;99.90;;;;;;2507299;23;20015;-70
2022/04/17 00:20:24;;;;;;;19.85;15.05;;;4.30;99.90;;;;;;2495535;23;20000;-71
2022/04/17 00:21:25;;;;;;;21.73;15.60;;;4.30;99.90;;;;;;2508321;23;20036;-71
2022/04/17 00:22:26;;;;;;;22.17;15.38;;;4.30;99.90;;;;;;2507964;23;20078;-71
2022/04/17 00:23:27;;;;;;;21.13;15.43;;;4.20;99.90;;;;;;2507620;23;20014;-70
2022/04/17 00:24:27;;;;;;;24.02;15.95;;;4.20;99.90;;;;;;2495128;23;20018;-70
2022/04/17 00:25:28;;;;;;;22.05;16.08;;;4.20;99.90;;;;;;2495232;23;20414;-72
2022/04/17 00:26:28;;;;;;;24.52;17.08;;;4.20;99.90;;;;;;2495119;23;20003;-72
2022/04/17 00:27:29;;;;;;;22.88;16.65;;;4.20;99.90;;;;;;2495149;23;20087;-72
2022/04/17 00:28:30;;;;;;;25.20;17.92;;;4.20;99.90;;;;;;2507882;23;20016;-70
2022/04/17 00:29:31;;;;;;;22.77;17.30;;;4.20;99.90;;;;;;2507953;23;20011;-71
2022/04/17 00:30:31;;;;;;;24.88;17.10;;;4.20;99.90;;;;;;2495415;23;20018;-71
2022/04/17 00:31:32;;;;;;;24.23;16.92;;;4.20;99.90;;;;;;2495922;23;20022;-71
2022/04/17 00:32:33;;;;;;;25.13;17.17;;;4.20;99.90;;;;;;2508163;23;20003;-70
2022/04/17 00:33:34;;;;;;;23.65;17.13;;;4.20;99.90;;;;;;2506936;23;20739;-72
2022/04/17 00:34:36;;;;;;;23.17;16.83;;;4.20;99.90;;;;;;2507245;23;20007;-71
2022/04/17 00:35:38;;;;;;;26.60;18.05;;;4.10;99.90;;;;;;2507232;23;20070;-71
2022/04/17 00:36:39;;;;;;;25.67;17.83;;;4.10;99.90;;;;;;2507669;23;20030;-71
2022/04/17 00:37:39;;;;;;;25.88;17.48;;;4.10;99.90;;;;;;2508721;23;20331;-72
2022/04/17 00:38:40;;;;;;;23.83;17.33;;;4.10;99.90;;;;;;2508412;23;20006;-72
2022/04/17 00:39:41;;;;;;;24.02;17.42;;;4.10;99.90;;;;;;2508410;23;20148;-72
2022/04/17 00:40:41;;;;;;;25.05;17.70;;;4.10;99.90;;;;;;2508425;23;19999;-72
2022/04/17 00:41:42;;;;;;;26.33;17.40;;;4.10;99.90;;;;;;2508350;23;20007;-72
2022/04/17 00:42:43;;;;;;;24.23;17.83;;;4.10;99.90;;;;;;2508719;23;20650;-70
2022/04/17 00:43:46;;;;;;;25.33;17.83;;;4.00;99.90;;;;;;2508477;23;20017;-71
2022/04/17 00:44:47;;;;;;;25.70;18.00;;;4.00;99.90;;;;;;2508327;23;20041;-71
2022/04/17 00:45:47;;;;;;;24.23;17.33;;;4.00;99.90;;;;;;2496345;23;20080;-71
2022/04/17 00:46:48;;;;;;;24.77;17.55;;;4.00;99.90;;;;;;2496009;23;20003;-72
2022/04/17 00:47:48;;;;;;;26.88;17.63;;;4.00;99.90;;;;;;2508504;23;20451;-71
2022/04/17 00:48:49;;;;;;;24.67;17.17;;;4.00;99.90;;;;;;2508206;23;20034;-71
2022/04/17 00:49:49;;;;;;;25.58;17.63;;;4.00;99.90;;;;;;2495736;23;20079;-71
2022/04/17 00:50:53;;;;;;;27.05;17.83;;;4.00;99.90;;;;;;2495682;23;20011;-70
2022/04/17 00:51:54;;;;;;;25.23;17.75;;;4.00;99.90;;;;;;2495301;23;20095;-71
2022/04/17 00:52:55;;;;;;;25.77;17.38;;;4.00;99.90;;;;;;2495653;23;20015;-70
2022/04/17 00:53:57;;;;;;;22.60;16.38;;;4.00;99.90;;;;;;2507695;23;20013;-71
2022/04/17 00:54:59;;;;;;;23.33;17.05;;;3.90;99.90;;;;;;2507000;23;20014;-70
2022/04/17 00:56:02;;;;;;;25.52;17.42;;;4.00;99.90;;;;;;2509111;23;20026;-71
2022/04/17 00:57:06;;;;;;;26.33;18.05;;;3.90;99.90;;;;;;2508910;23;20014;-71
2022/04/17 00:58:07;;;;;;;27.08;18.55;;;3.90;99.90;;;;;;2509027;23;20038;-70
2022/04/17 00:59:13;;;;;;;26.38;18.73;;;4.00;99.90;;;;;;2509493;23;20084;-74
2022/04/17 01:00:14;;;;;;;26.70;18.27;;;4.00;99.90;;;;;;2509039;23;20066;-72
2022/04/17 01:01:15;;;;;;;26.25;18.52;;;3.90;99.90;;;;;;2484279;23;20829;-72
2022/04/17 01:02:16;;;;;;;27.25;18.58;;;3.90;99.90;;;;;;2472752;24;20092;-71
2022/04/17 01:03:17;;;;;;;26.60;18.17;;;3.90;99.90;;;;;;2495889;23;20063;-71
2022/04/17 01:04:18;;;;;;;25.65;18.83;;;3.90;99.90;;;;;;2508054;23;20010;-71
2022/04/17 01:05:19;;;;;;;26.95;18.20;;;3.80;99.90;;;;;;2496560;23;20009;-70
2022/04/17 01:06:20;;;;;;;25.65;18.52;;;3.80;99.90;;;;;;2496473;23;20004;-71
2022/04/17 01:07:22;;;;;;;26.83;18.58;;;3.80;99.90;;;;;;2507352;23;19995;-71
2022/04/17 01:08:23;;;;;;;26.90;18.70;;;3.80;99.90;;;;;;2507928;23;20074;-73
2022/04/17 01:09:24;;;;;;;27.42;18.45;;;3.80;99.90;;;;;;2508166;23;20612;-70
2022/04/17 01:10:24;;;;;;;25.67;18.80;;;3.80;99.90;;;;;;2507109;23;20007;-71
2022/04/17 01:11:26;;;;;;;27.42;18.95;;;3.80;99.90;;;;;;2506161;23;20005;-72
2022/04/17 01:12:27;;;;;;;24.38;18.52;;;3.70;99.90;;;;;;2507737;23;20030;-73
2022/04/17 01:13:28;;;;;;;27.80;18.92;;;3.70;99.90;;;;;;2494410;23;20476;-72
2022/04/17 01:14:29;;;;;;;25.83;19.13;;;3.70;99.90;;;;;;2484374;23;20004;-71
2022/04/17 01:15:31;;;;;;;27.08;18.70;;;3.70;99.90;;;;;;2495609;23;20007;-71
2022/04/17 01:16:32;;;;;;;27.08;18.73;;;3.70;99.90;;;;;;2507735;23;20003;-71
2022/04/17 01:17:33;;;;;;;25.50;18.48;;;3.60;99.90;;;;;;2507717;23;20033;-73
2022/04/17 01:18:57;;;;;;;28.27;19.42;;;3.60;99.90;;;;;;2508096;23;20376;-71
2022/04/17 01:19:58;;;;;;;27.23;18.88;;;3.60;99.90;;;;;;2508317;23;20003;-71
2022/04/17 01:20:59;;;;;;;32.08;20.88;;;3.60;99.90;;;;;;2508050;23;20439;-71
2022/04/17 01:21:59;;;;;;;30.10;19.48;;;3.60;99.90;;;;;;2508437;23;20007;-72
2022/04/17 01:27:03;;;;;;;26.00;18.55;;;3.50;99.90;;;;;;2508406;23;20015;-72
2022/04/17 01:28:05;;;;;;;27.30;19.13;;;3.50;99.90;;;;;;2507669;23;20014;-73
2022/04/17 01:29:06;;;;;;;27.33;19.33;;;3.50;99.90;;;;;;2507862;23;20014;-72
2022/04/17 01:30:07;;;;;;;27.17;19.13;;;3.50;99.90;;;;;;2496536;23;20333;-73
2022/04/17 01:31:08;;;;;;;28.13;19.75;;;3.50;99.90;;;;;;2497592;23;20094;-75
2022/04/17 01:32:10;;;;;;;30.02;19.20;;;3.50;99.90;;;;;;2510313;23;20007;-73
2022/04/17 01:33:11;;;;;;;29.23;19.45;;;3.50;99.90;;;;;;2509514;23;20451;-71
2022/04/17 01:34:16;;;;;;;27.02;18.27;;;3.50;99.90;;;;;;2509355;23;20007;-72
2022/04/17 01:35:17;;;;;;;27.42;19.42;;;3.40;99.90;;;;;;2507669;23;20038;-71
2022/04/17 01:36:18;;;;;;;28.40;20.48;;;3.40;99.90;;;;;;2494968;23;20030;-72
2022/04/17 01:37:19;;;;;;;28.75;19.55;;;3.40;99.90;;;;;;2494598;23;20007;-72
2022/04/17 01:38:19;;;;;;;30.58;20.98;;;3.40;99.90;;;;;;2506884;23;20011;-72
2022/04/17 01:39:20;;;;;;;28.45;20.25;;;3.40;99.90;;;;;;2507482;23;20014;-71
2022/04/17 01:40:21;;;;;;;31.48;20.05;;;3.30;99.90;;;;;;2494741;23;20043;-72
2022/04/17 01:41:21;;;;;;;30.20;21.00;;;3.40;99.90;;;;;;2483091;23;20464;-71
2022/04/17 01:42:22;;;;;;;29.90;21.55;;;3.30;99.90;;;;;;2482998;23;20024;-72
2022/04/17 01:43:22;;;;;;;29.83;22.30;;;3.40;99.90;;;;;;2494565;23;20013;-72
2022/04/17 01:44:25;;;;;;;30.50;21.73;;;3.40;99.90;;;;;;2507199;23;20003;-72
2022/04/17 01:45:26;;;;;;;30.60;21.52;;;3.40;99.90;;;;;;2507133;23;20021;-71
2022/04/17 01:46:26;;;;;;;29.52;21.60;;;3.40;99.90;;;;;;2506764;23;20010;-72
2022/04/17 01:47:27;;;;;;;31.73;22.17;;;3.40;99.90;;;;;;2505968;23;20015;-72
2022/04/17 01:48:27;;;;;;;32.67;22.83;;;3.30;99.90;;;;;;2506843;23;20011;-72
2022/04/17 01:49:28;;;;;;;29.90;21.92;;;3.40;99.90;;;;;;2494837;23;20014;-71
2022/04/17 01:50:30;;;;;;;27.98;21.20;;;3.40;99.90;;;;;;2494149;23;20398;-71
2022/04/17 01:51:38;;;;;;;28.30;21.42;;;3.40;99.90;;;;;;2506791;23;20135;-71
2022/04/17 01:52:39;;;;;;;30.10;22.25;;;3.30;99.90;;;;;;2506874;23;20009;-70
2022/04/17 01:53:39;;;;;;;30.83;22.15;;;3.30;99.90;;;;;;2507175;23;20015;-72
2022/04/17 01:54:40;;;;;;;28.92;21.80;;;3.30;99.90;;;;;;2507370;23;20109;-71
2022/04/17 01:55:40;;;;;;;29.15;21.52;;;3.30;99.90;;;;;;2507575;23;20384;-71
2022/04/17 01:56:42;;;;;;;31.00;22.58;;;3.20;99.90;;;;;;2495428;23;20397;-70
2022/04/17 01:57:43;;;;;;;30.85;22.10;;;3.20;99.90;;;;;;2495957;23;20035;-70
2022/04/17 01:58:44;;;;;;;32.03;22.65;;;3.20;99.90;;;;;;2507535;23;20018;-71
2022/04/17 01:59:44;;;;;;;31.75;22.60;;;3.20;99.90;;;;;;2507476;23;20006;-71
2022/04/17 02:00:45;;;;;;;30.98;21.88;;;3.20;99.90;;;;;;2507428;23;20026;-70
2022/04/17 02:01:46;;;;;;;33.60;22.20;;;3.20;99.90;;;;;;2507416;23;20022;-71
2022/04/17 02:02:46;;;;;;;30.05;21.10;;;3.10;99.90;;;;;;2507556;23;20003;-71
2022/04/17 02:03:47;;;;;;;31.30;21.58;;;3.20;99.90;;;;;;2507847;23;20011;-71
2022/04/17 02:04:47;;;;;;;30.70;20.90;;;3.10;99.90;;;;;;2508188;23;20015;-72
2022/04/17 02:05:48;;;;;;;28.77;20.92;;;3.10;99.90;;;;;;2495805;23;20055;-70
2022/04/17 02:06:48;;;;;;;29.13;20.35;;;3.10;99.90;;;;;;2495723;23;20003;-71
2022/04/17 02:07:49;;;;;;;31.40;21.08;;;3.10;99.90;;;;;;2507906;23;20015;-70
2022/04/17 02:08:51;;;;;;;30.45;21.15;;;3.10;99.90;;;;;;2508189;23;20015;-72
2022/04/17 02:09:52;;;;;;;30.20;20.58;;;3.10;99.90;;;;;;2508142;23;20014;-71
2022/04/17 02:10:52;;;;;;;26.25;19.45;;;3.00;99.90;;;;;;2508418;23;20095;-70
2022/04/17 02:11:53;;;;;;;25.80;18.75;;;3.10;99.90;;;;;;2495573;23;20094;-70
2022/04/17 02:12:54;;;;;;;26.10;18.33;;;3.00;99.90;;;;;;2495655;23;20022;-72
2022/04/17 02:13:55;;;;;;;28.60;18.52;;;3.00;99.90;;;;;;2507782;23;20007;-72
2022/04/17 02:14:56;;;;;;;25.38;17.88;;;3.00;99.90;;;;;;2508276;23;20006;-71
2022/04/17 02:15:56;;;;;;;25.20;17.90;;;3.00;99.90;;;;;;2508093;23;20097;-72
2022/04/17 02:16:57;;;;;;;24.17;16.70;;;3.00;99.90;;;;;;2508408;23;20431;-70
2022/04/17 02:17:57;;;;;;;24.45;16.90;;;3.00;99.90;;;;;;2507991;23;20050;-70
2022/04/17 02:19:00;;;;;;;23.40;17.05;;;3.00;99.90;;;;;;2508482;23;20184;-71
2022/04/17 02:20:01;;;;;;;23.00;16.95;;;3.00;99.90;;;;;;2508142;23;20013;-70
2022/04/17 02:21:01;;;;;;;23.25;16.77;;;3.00;99.90;;;;;;2508184;23;20037;-70
2022/04/17 02:22:02;;;;;;;22.67;15.93;;;3.00;99.90;;;;;;2484307;23;20581;-70
2022/04/17 02:23:02;;;;;;;23.52;15.90;;;2.90;99.90;;;;;;2484574;23;20064;-70
2022/04/17 02:24:04;;;;;;;21.98;15.65;;;2.90;99.90;;;;;;2507723;23;20022;-71
2022/04/17 02:25:05;;;;;;;23.10;15.10;;;2.90;99.90;;;;;;2507605;23;20019;-70
2022/04/17 02:26:05;;;;;;;19.13;14.32;;;2.90;99.90;;;;;;2508914;23;20507;-71
2022/04/17 02:27:06;;;;;;;21.58;14.88;;;2.90;99.90;;;;;;2508404;23;20447;-70
2022/04/17 02:28:08;;;;;;;22.52;15.70;;;2.90;99.90;;;;;;2508888;23;20010;-70
2022/04/17 02:29:08;;;;;;;23.00;15.85;;;2.90;99.90;;;;;;2508168;23;20003;-70
2022/04/17 02:30:09;;;;;;;24.20;15.88;;;2.90;99.90;;;;;;2508739;23;20047;-71
2022/04/17 02:31:10;;;;;;;23.02;15.93;;;2.80;99.90;;;;;;2508152;23;20018;-70
2022/04/17 02:32:11;;;;;;;23.52;15.88;;;2.80;99.90;;;;;;2508447;23;20038;-71
2022/04/17 02:33:12;;;;;;;25.77;16.50;;;2.80;99.90;;;;;;2495543;23;20075;-71
2022/04/17 02:34:13;;;;;;;26.02;17.60;;;2.80;99.90;;;;;;2495151;23;20056;-71
2022/04/17 02:35:14;;;;;;;30.48;18.45;;;2.80;99.90;;;;;;2507521;23;20014;-71
2022/04/17 02:36:15;;;;;;;29.33;18.10;;;2.80;99.90;;;;;;2507701;23;20037;-70
2022/04/17 02:37:16;;;;;;;31.48;19.13;;;2.70;99.90;;;;;;2507680;23;20017;-70
2022/04/17 02:38:16;;;;;;;28.70;18.50;;;2.80;99.90;;;;;;2507729;23;20424;-70
2022/04/17 02:39:17;;;;;;;28.92;17.67;;;2.70;99.90;;;;;;2508017;23;20049;-70
2022/04/17 02:40:17;;;;;;;30.85;18.50;;;2.70;99.90;;;;;;2507637;23;20026;-70
2022/04/17 02:41:18;;;;;;;29.00;17.75;;;2.70;99.90;;;;;;2507866;23;20013;-70
2022/04/17 02:42:18;;;;;;;27.08;17.48;;;2.70;99.90;;;;;;2495058;23;19999;-70
2022/04/17 02:43:20;;;;;;;28.00;18.05;;;2.70;99.90;;;;;;2482433;23;20514;-70
2022/04/17 02:44:20;;;;;;;29.40;17.67;;;2.70;99.90;;;;;;2494813;23;20071;-70
2022/04/17 02:45:21;;;;;;;26.52;17.17;;;2.70;99.90;;;;;;2507414;23;20066;-70
2022/04/17 02:47:43;;;;;;;25.25;17.23;;;2.70;99.90;;;;;;2507344;23;20118;-71
2022/04/17 02:48:44;;;;;;;26.05;16.77;;;2.70;99.90;;;;;;2494822;23;20033;-70
2022/04/17 02:49:45;;;;;;;26.95;17.70;;;2.70;99.90;;;;;;2494779;23;20019;-71
2022/04/17 02:50:47;;;;;;;25.05;16.35;;;2.70;99.90;;;;;;2494645;23;20191;-71
2022/04/17 02:51:47;;;;;;;26.17;17.42;;;2.70;99.90;;;;;;2483139;23;20008;-70
2022/04/17 02:52:48;;;;;;;25.67;17.27;;;2.70;99.90;;;;;;2494582;23;20053;-70
2022/04/17 02:53:49;;;;;;;26.88;17.23;;;2.70;99.90;;;;;;2494180;23;20086;-70
2022/04/17 02:54:50;;;;;;;23.80;17.55;;;2.70;99.90;;;;;;2494659;23;20011;-70
2022/04/17 02:55:51;;;;;;;26.38;17.65;;;2.70;99.90;;;;;;2507255;23;20007;-70
2022/04/17 02:56:51;;;;;;;26.13;17.48;;;2.70;99.90;;;;;;2507252;23;20664;-70
2022/04/17 02:57:54;;;;;;;27.02;17.52;;;2.70;99.90;;;;;;2507092;23;20010;-72
2022/04/17 02:58:54;;;;;;;27.25;17.15;;;2.70;99.90;;;;;;2494516;23;20007;-71
2022/04/17 02:59:55;;;;;;;24.05;16.70;;;2.70;99.90;;;;;;2494501;23;20421;-71
2022/04/17 03:06:14;;;;;;;25.73;17.10;;;2.70;99.90;;;;;;2494677;23;20057;-69
2022/04/17 03:07:15;;;;;;;24.95;16.58;;;2.70;99.90;;;;;;2494871;23;20079;-70
2022/04/17 03:08:16;;;;;;;24.05;16.98;;;2.70;99.90;;;;;;2507414;23;20492;-71
2022/04/17 03:09:18;;;;;;;23.67;16.52;;;2.70;99.90;;;;;;2494582;23;20022;-71
2022/04/17 03:10:18;;;;;;;23.40;16.85;;;2.70;99.90;;;;;;2494351;23;20003;-70
2022/04/17 03:11:19;;;;;;;23.75;16.23;;;2.70;99.90;;;;;;2494532;23;20010;-70
2022/04/17 03:12:20;;;;;;;21.55;15.43;;;2.70;99.90;;;;;;2494529;23;20058;-70
2022/04/17 03:13:20;;;;;;;21.05;16.05;;;2.70;99.90;;;;;;2506871;23;20018;-70
2022/04/17 03:14:21;;;;;;;22.67;16.23;;;2.70;99.90;;;;;;2507287;23;20050;-70
2022/04/17 03:15:22;;;;;;;22.73;16.15;;;2.70;99.90;;;;;;2494660;23;20139;-70
2022/04/17 03:16:23;;;;;;;22.92;16.85;;;2.70;99.90;;;;;;2494924;23;20065;-69
2022/04/17 03:17:24;;;;;;;21.65;16.10;;;2.70;99.90;;;;;;2494791;23;20364;-70
2022/04/17 03:18:24;;;;;;;21.08;15.82;;;2.70;99.90;;;;;;2494744;23;20333;-70
2022/04/17 03:19:25;;;;;;;23.70;16.50;;;2.70;99.90;;;;;;2507067;23;20082;-70
2022/04/17 03:20:27;;;;;;;24.10;16.17;;;2.70;99.90;;;;;;2507078;23;20003;-71
2022/04/17 03:21:27;;;;;;;23.42;16.02;;;2.60;99.90;;;;;;2507192;23;20575;-70
2022/04/17 03:22:28;;;;;;;23.42;15.80;;;2.60;99.90;;;;;;2507267;23;20014;-70
2022/04/17 03:23:28;;;;;;;24.00;16.40;;;2.60;99.90;;;;;;2506903;23;19999;-70
2022/04/17 03:24:29;;;;;;;23.17;16.63;;;2.60;99.90;;;;;;2507166;23;20011;-70
2022/04/17 03:25:30;;;;;;;22.73;15.63;;;2.60;99.90;;;;;;2507107;23;20026;-71
2022/04/17 03:26:31;;;;;;;23.75;16.20;;;2.60;99.90;;;;;;2482709;23;20018;-71
2022/04/17 03:27:31;;;;;;;22.42;16.45;;;2.60;99.90;;;;;;2482729;23;20438;-70
2022/04/17 03:28:32;;;;;;;24.35;16.13;;;2.60;99.90;;;;;;2482824;23;20059;-71
2022/04/17 03:29:33;;;;;;;23.65;16.45;;;2.60;99.90;;;;;;2494650;23;20031;-71
2022/04/17 03:30:33;;;;;;;25.17;16.83;;;2.50;99.90;;;;;;2507077;23;20041;-69
2022/04/17 03:31:34;;;;;;;24.00;16.40;;;2.60;99.90;;;;;;2507135;23;20010;-72
2022/04/17 03:32:34;;;;;;;23.27;16.75;;;2.50;99.90;;;;;;2494611;23;20011;-71
2022/04/17 03:33:35;;;;;;;23.75;17.13;;;2.50;99.90;;;;;;2494479;23;20547;-70
2022/04/17 03:34:36;;;;;;;25.65;16.98;;;2.50;99.90;;;;;;2507197;23;20010;-71
2022/04/17 03:35:36;;;;;;;23.88;17.40;;;2.50;99.90;;;;;;2494846;23;20471;-71
2022/04/17 03:36:39;;;;;;;25.35;16.90;;;2.50;99.90;;;;;;2494924;23;20031;-72
2022/04/17 03:37:43;;;;;;;23.98;17.13;;;2.50;99.90;;;;;;2507296;23;20042;-70
2022/04/17 03:38:44;;;;;;;24.40;17.08;;;2.50;99.90;;;;;;2507285;23;19999;-71
2022/04/17 03:39:46;;;;;;;26.23;16.33;;;2.50;99.90;;;;;;2494768;23;20004;-70
2022/04/17 03:40:46;;;;;;;21.90;16.35;;;2.50;99.90;;;;;;2483767;23;20039;-70
2022/04/17 03:41:47;;;;;;;23.17;16.77;;;2.50;99.90;;;;;;2495551;23;20336;-71
2022/04/17 03:42:48;;;;;;;23.85;17.20;;;2.40;99.90;;;;;;2507392;23;20015;-70
2022/04/17 03:43:49;;;;;;;22.95;16.55;;;2.50;99.90;;;;;;2506923;23;20007;-69
2022/04/17 03:44:49;;;;;;;25.25;16.92;;;2.40;99.90;;;;;;2507821;23;20022;-70
2022/04/17 03:45:50;;;;;;;22.65;15.90;;;2.50;99.90;;;;;;2495266;23;20061;-71
2022/04/17 03:46:51;;;;;;;24.45;17.58;;;2.50;99.90;;;;;;2495443;23;20025;-70
2022/04/17 03:47:52;;;;;;;26.17;16.50;;;2.50;99.90;;;;;;2508047;23;20085;-70
2022/04/17 03:48:52;;;;;;;23.33;16.50;;;2.40;99.90;;;;;;2495337;23;20007;-71
2022/04/17 03:49:53;;;;;;;22.45;17.00;;;2.40;99.90;;;;;;2495311;23;20062;-70
2022/04/17 03:50:53;;;;;;;23.45;17.00;;;2.40;99.90;;;;;;2507945;23;20007;-70
2022/04/17 03:51:54;;;;;;;22.60;16.48;;;2.40;99.90;;;;;;2507977;23;20085;-70
2022/04/17 03:52:55;;;;;;;23.88;17.02;;;2.40;99.90;;;;;;2507995;23;20086;-69
2022/04/17 03:53:56;;;;;;;23.40;16.60;;;2.40;99.90;;;;;;2494651;23;20396;-70
2022/04/17 03:54:56;;;;;;;24.48;16.45;;;2.30;99.90;;;;;;2495199;23;20191;-71
2022/04/17 03:55:57;;;;;;;25.02;16.48;;;2.30;99.90;;;;;;2507879;23;20066;-70
2022/04/17 03:56:57;;;;;;;25.58;17.17;;;2.30;99.90;;;;;;2507879;23;20015;-70
2022/04/17 03:57:58;;;;;;;23.35;16.65;;;2.30;99.90;;;;;;2495460;23;20012;-70
2022/04/17 03:58:58;;;;;;;23.83;16.75;;;2.30;99.90;;;;;;2495425;23;20007;-71
2022/04/17 03:59:59;;;;;;;22.45;16.63;;;2.30;99.90;;;;;;2507115;23;20443;-72
2022/04/17 04:01:00;;;;;;;24.38;17.38;;;2.20;99.90;;;;;;2507977;23;20006;-71
2022/04/17 04:02:01;;;;;;;23.10;16.50;;;2.20;99.90;;;;;;2507977;23;20003;-71
2022/04/17 04:03:02;;;;;;;24.13;16.65;;;2.20;99.90;;;;;;2507173;23;20069;-70
2022/04/17 04:04:03;;;;;;;25.52;17.85;;;2.20;99.90;;;;;;2506741;23;20025;-69
2022/04/17 04:05:05;;;;;;;24.63;17.83;;;2.20;99.90;;;;;;2495200;23;20015;-72
2022/04/17 04:06:05;;;;;;;25.25;17.00;;;2.20;99.90;;;;;;2483563;23;20031;-70
2022/04/17 04:07:06;;;;;;;24.10;17.02;;;2.20;99.90;;;;;;2483519;23;20457;-70
2022/04/17 04:08:08;;;;;;;23.33;16.35;;;2.20;99.90;;;;;;2495125;23;20329;-71
2022/04/17 04:09:09;;;;;;;24.35;17.17;;;2.20;99.90;;;;;;2495331;23;20003;-72
2022/04/17 04:10:10;;;;;;;25.23;17.60;;;2.20;99.90;;;;;;2495195;23;20085;-71
2022/04/17 04:11:11;;;;;;;24.35;17.90;;;2.30;99.90;;;;;;2508173;23;20440;-71
2022/04/17 04:12:11;;;;;;;27.48;19.25;;;2.30;99.90;;;;;;2495280;23;20029;-71
2022/04/17 04:13:12;;;;;;;23.80;17.42;;;2.30;99.90;;;;;;2494902;23;20026;-71
2022/04/17 04:14:13;;;;;;;24.05;17.92;;;2.30;99.90;;;;;;2507195;23;20094;-70
2022/04/17 04:15:13;;;;;;;25.38;18.23;;;2.30;99.90;;;;;;2508069;23;20014;-70
2022/04/17 04:16:14;;;;;;;27.25;18.40;;;2.30;99.90;;;;;;2507946;23;20309;-70
2022/04/17 04:17:15;;;;;;;28.40;18.85;;;2.30;99.90;;;;;;2507921;23;20076;-70
2022/04/17 04:18:15;;;;;;;26.30;19.17;;;2.30;99.90;;;;;;2507801;23;20015;-71
2022/04/17 04:19:16;;;;;;;27.02;20.08;;;2.30;99.90;;;;;;2495298;23;20010;-70
2022/04/17 04:20:17;;;;;;;29.17;20.20;;;2.30;99.90;;;;;;2471610;24;20138;-71
2022/04/17 04:21:17;;;;;;;26.92;20.00;;;2.40;99.90;;;;;;2483667;23;20072;-71
2022/04/17 04:22:20;;;;;;;29.08;20.48;;;2.30;99.90;;;;;;2506804;23;20086;-70
2022/04/17 04:23:21;;;;;;;29.98;20.90;;;2.40;99.90;;;;;;2494892;23;20055;-71
2022/04/17 04:24:24;;;;;;;28.60;20.67;;;2.40;99.90;;;;;;2495169;23;20011;-72
2022/04/17 04:25:25;;;;;;;30.40;21.42;;;2.40;99.90;;;;;;2495097;23;20471;-72
2022/04/17 04:26:25;;;;;;;32.92;22.67;;;2.50;99.90;;;;;;2483421;23;20019;-71
2022/04/17 04:28:45;;;;;;;32.03;22.77;;;2.50;99.90;;;;;;2499193;23;20058;-72
2022/04/17 04:29:46;;;;;;;31.00;21.52;;;2.50;99.90;;;;;;2507906;23;20077;-71
2022/04/17 04:30:46;;;;;;;31.38;22.63;;;2.50;99.90;;;;;;2507942;23;20018;-72
2022/04/17 04:31:47;;;;;;;32.80;22.65;;;2.50;99.90;;;;;;2507953;23;20014;-72
2022/04/17 04:32:52;;;;;;;32.90;22.60;;;2.50;99.90;;;;;;2506988;23;20038;-72
2022/04/17 04:33:53;;;;;;;32.63;22.73;;;2.50;99.90;;;;;;2506965;23;20072;-72
2022/04/17 04:35:00;;;;;;;32.00;22.45;;;2.50;99.90;;;;;;2507743;23;20119;-71
2022/04/17 04:36:02;;;;;;;31.65;22.75;;;2.50;99.90;;;;;;2507997;23;20058;-73
2022/04/17 04:37:04;;;;;;;32.13;22.45;;;2.50;99.90;;;;;;2507881;23;20011;-71
2022/04/17 04:38:05;;;;;;;32.28;22.85;;;2.60;99.90;;;;;;2507923;23;20340;-72
2022/04/17 04:39:05;;;;;;;30.52;22.55;;;2.60;99.90;;;;;;2508043;23;20018;-71
2022/04/17 04:40:06;;;;;;;31.65;22.50;;;2.60;99.90;;;;;;2507031;23;20074;-72
2022/04/17 04:41:07;;;;;;;33.17;23.08;;;2.60;99.90;;;;;;2507219;23;20471;-72
2022/04/17 04:42:08;;;;;;;31.65;22.85;;;2.60;99.90;;;;;;2495302;23;20007;-70
2022/04/17 04:43:09;;;;;;;34.63;24.38;;;2.60;99.90;;;;;;2494853;23;20512;-71
2022/04/17 04:44:10;;;;;;;33.15;23.20;;;2.60;99.90;;;;;;2495131;23;20045;-71
2022/04/17 04:46:30;;;;;;;33.90;23.38;;;2.70;99.90;;;;;;2518073;23;20021;-71
2022/04/17 04:47:31;;;;;;;32.72;23.27;;;2.70;99.90;;;;;;2518109;23;20002;-71
2022/04/17 04:49:51;;;;;;;29.63;22.27;;;2.80;99.90;;;;;;2507634;23;20059;-70
2022/04/17 04:50:52;;;;;;;31.67;22.85;;;2.80;99.90;;;;;;2507367;23;20066;-71
2022/04/17 04:51:53;;;;;;;30.10;22.15;;;2.80;99.90;;;;;;2506753;23;20018;-72
2022/04/17 04:52:53;;;;;;;30.95;22.67;;;2.80;99.90;;;;;;2506536;23;20432;-72
2022/04/17 04:53:57;;;;;;;32.22;22.25;;;2.90;99.90;;;;;;2507182;23;20327;-71
2022/04/17 04:54:59;;;;;;;32.38;22.15;;;2.90;99.90;;;;;;2507599;23;20400;-72
2022/04/17 04:56:00;;;;;;;28.27;21.05;;;2.90;99.90;;;;;;2506799;23;20007;-72
2022/04/17 04:57:01;;;;;;;27.80;21.15;;;3.00;99.90;;;;;;2506952;23;20006;-71
2022/04/17 04:58:01;;;;;;;30.08;21.85;;;3.00;99.90;;;;;;2506613;23;20022;-70
2022/04/17 04:59:03;;;;;;;27.85;21.48;;;3.10;99.90;;;;;;2506820;23;20017;-70
2022/04/17 05:00:08;;;;;;;29.13;21.35;;;3.20;99.90;;;;;;2495153;23;20563;-71
2022/04/17 05:01:08;;;;;;;28.27;21.25;;;3.20;99.90;;;;;;2483222;23;20014;-71
2022/04/17 05:02:10;;;;;;;29.23;21.02;;;3.20;99.90;;;;;;2483232;23;20481;-70
2022/04/17 05:03:10;;;;;;;29.77;21.48;;;3.30;99.90;;;;;;2507510;23;20011;-71
2022/04/17 05:04:11;;;;;;;30.67;21.55;;;3.40;99.90;;;;;;2506803;23;20473;-70
2022/04/17 05:05:12;;;;;;;29.75;22.05;;;3.40;99.90;;;;;;2507006;23;20022;-71
2022/04/17 05:06:13;;;;;;;30.40;21.60;;;3.40;99.90;;;;;;2507091;23;20007;-71
2022/04/17 05:07:13;;;;;;;29.48;21.20;;;3.50;99.90;;;;;;2483460;23;20015;-72
2022/04/17 05:08:14;;;;;;;30.48;21.75;;;3.50;99.90;;;;;;2483261;23;20086;-72
2022/04/17 05:09:14;;;;;;;29.73;21.52;;;3.60;99.90;;;;;;2518878;23;20079;-70
2022/04/17 05:10:15;;;;;;;30.67;20.75;;;3.70;99.90;;;;;;2518727;23;20030;-71
2022/04/17 05:11:16;;;;;;;29.55;21.20;;;3.70;99.90;;;;;;2506856;23;20010;-72
2022/04/17 05:12:16;;;;;;;27.45;19.98;;;3.90;99.90;;;;;;2507790;23;20006;-72
2022/04/17 05:13:17;;;;;;;27.83;20.42;;;4.00;99.90;;;;;;2507817;23;20553;-72
2022/04/17 05:14:20;;;;;;;31.27;21.45;;;4.20;99.90;;;;;;2507703;23;20030;-70
2022/04/17 05:15:22;;;;;;;27.45;20.70;;;4.40;99.90;;;;;;2507694;23;20090;-71
2022/04/17 05:16:23;;;;;;;28.25;20.17;;;4.70;99.90;;;;;;2507635;23;20030;-71
2022/04/17 05:17:24;;;;;;;28.17;19.67;;;4.90;99.90;;;;;;2507631;23;20033;-72
2022/04/17 05:18:24;;;;;;;27.90;19.02;;;5.10;99.90;;;;;;2483366;23;20056;-72
2022/04/17 05:19:27;;;;;;;26.10;19.02;;;5.30;99.90;;;;;;2483221;23;20456;-72
2022/04/17 05:20:28;;;;;;;27.80;19.60;;;5.50;99.90;;;;;;2507465;23;20093;-70
2022/04/17 05:21:31;;;;;;;26.35;19.02;;;5.60;99.90;;;;;;2507624;23;20416;-72
2022/04/17 05:22:33;;;;;;;26.67;20.27;;;5.70;99.90;;;;;;2495149;23;20011;-72
2022/04/17 05:23:36;;;;;;;25.65;19.17;;;5.90;99.90;;;;;;2494841;23;20010;-70
2022/04/17 05:24:40;;;;;;;27.60;19.25;;;6.00;99.90;;;;;;2507572;23;20007;-73
2022/04/17 05:25:55;;;;;;;26.38;18.45;;;6.20;99.90;;;;;;2507594;23;20014;-71
2022/04/17 05:26:55;;;;;;;26.25;17.88;;;6.40;99.90;;;;;;2495074;23;20439;-70
2022/04/17 05:27:56;;;;;;;25.83;17.95;;;6.60;99.90;;;;;;2495067;23;20011;-71